Time;durP1;ratioP1;P1;durP2;ratioP2;P2;SDS_P1;SDS_P2;PMS_P1;PMS_P2;Temp;Humidity;BMP_temperature;BMP_pressure;BME280_temperature;BME280_humidity;BME280_pressure;Samples;Min_cycle;Max_cycle;Signal;HPM_P1;HPM_P2
2023/04/16 00:01:54;;;;;;;20.33;8.57;;;;;;;10.03;87.95;99873.53;5003235;28;20046;-86
2023/04/16 00:04:21;;;;;;;22.40;8.70;;;;;;;10.05;87.98;99872.44;5000122;28;20457;-86
2023/04/16 00:06:48;;;;;;;21.00;7.35;;;;;;;10.03;88.68;99879.69;5007524;28;20046;-85
2023/04/16 00:09:15;;;;;;;19.50;7.30;;;;;;;10.03;88.07;99863.78;4994413;28;20396;-85
2023/04/16 00:11:42;;;;;;;17.02;7.13;;;;;;;10.08;87.47;99871.34;4996306;28;20491;-85
2023/04/16 00:14:09;;;;;;;17.35;6.93;;;;;;;10.09;87.81;99873.84;5011366;28;20403;-85
2023/04/16 00:16:37;;;;;;;17.45;7.80;;;;;;;10.11;87.58;99877.22;4993387;28;20392;-86
2023/04/16 00:19:04;;;;;;;15.77;6.65;;;;;;;10.07;87.74;99873.13;5011569;28;20463;-85
2023/04/16 00:21:31;;;;;;;13.50;6.47;;;;;;;9.98;87.78;99881.91;4994490;28;20099;-85
2023/04/16 00:23:58;;;;;;;13.27;5.22;;;;;;;10.03;87.04;99868.25;4991025;28;20073;-86
2023/04/16 00:26:24;;;;;;;13.57;5.60;;;;;;;10.00;87.17;99872.00;5008570;28;20423;-85
2023/04/16 00:28:52;;;;;;;15.02;6.07;;;;;;;10.02;88.11;99872.69;4989412;28;20095;-86
2023/04/16 00:31:29;;;;;;;13.90;6.13;;;;;;;9.93;87.25;99866.38;4983607;28;20046;-86
2023/04/16 00:33:57;;;;;;;15.45;6.03;;;;;;;9.94;87.60;99878.63;4987397;28;20050;-86
2023/04/16 00:36:24;;;;;;;15.55;6.30;;;;;;;9.96;87.17;99871.41;4977242;28;20506;-85
2023/04/16 00:38:52;;;;;;;13.57;5.07;;;;;;;9.97;87.69;99866.94;5023476;28;20049;-86
2023/04/16 00:41:18;;;;;;;13.77;5.10;;;;;;;9.94;87.93;99883.13;4993240;28;20057;-86
2023/04/16 00:43:45;;;;;;;14.52;5.57;;;;;;;10.02;87.24;99874.50;5011702;28;20045;-85
2023/04/16 00:46:12;;;;;;;15.32;6.32;;;;;;;9.95;87.27;99884.81;4983075;28;20631;-85
2023/04/16 00:48:40;;;;;;;15.73;5.88;;;;;;;9.95;87.06;99882.16;4964599;28;20074;-85
2023/04/16 00:51:07;;;;;;;13.43;4.93;;;;;;;9.98;87.40;99881.91;5005738;28;20057;-85
2023/04/16 00:53:34;;;;;;;15.13;5.32;;;;;;;9.97;87.64;99875.75;4993633;28;20053;-86
2023/04/16 00:56:02;;;;;;;19.67;6.68;;;;;;;10.04;87.27;99889.31;5002206;28;20049;-86
2023/04/16 00:58:29;;;;;;;19.60;7.35;;;;;;;9.85;88.45;99895.34;4999145;28;20056;-85
2023/04/16 01:00:56;;;;;;;16.55;7.13;;;;;;;9.93;86.53;99887.59;4977453;28;20098;-85
2023/04/16 01:03:29;;;;;;;15.73;6.28;;;;;;;9.93;87.02;99889.41;4979894;28;20116;-85
2023/04/16 01:05:57;;;;;;;16.95;6.88;;;;;;;9.98;87.08;99884.53;4997548;28;20053;-85
2023/04/16 01:08:23;;;;;;;17.40;6.03;;;;;;;9.93;87.65;99876.97;4997811;28;20499;-85
2023/04/16 01:10:50;;;;;;;20.48;7.22;;;;;;;9.91;86.60;99891.34;5009201;28;20333;-85
2023/04/16 01:13:17;;;;;;;17.52;7.32;;;;;;;9.93;86.52;99887.59;5006822;28;20054;-86
2023/04/16 01:15:43;;;;;;;22.83;8.57;;;;;;;9.97;87.10;99893.47;4983394;28;20045;-85
2023/04/16 01:18:18;;;;;;;19.35;7.28;;;;;;;9.96;87.99;99892.63;4983848;28;20072;-85
2023/04/16 01:20:46;;;;;;;24.98;7.75;;;;;;;9.98;86.90;99896.00;5014106;28;20134;-86
2023/04/16 01:23:13;;;;;;;20.27;8.02;;;;;;;9.97;86.87;99896.97;5008874;28;20499;-86
2023/04/16 01:25:40;;;;;;;17.88;7.22;;;;;;;9.98;86.68;99889.84;4998684;28;20049;-85
2023/04/16 01:28:07;;;;;;;27.35;8.07;;;;;;;10.02;86.91;99893.91;4972884;28;20357;-86
2023/04/16 01:30:33;;;;;;;23.17;8.48;;;;;;;10.05;87.11;99898.09;5008213;28;20387;-85
2023/04/16 01:33:12;;;;;;;23.25;8.32;;;;;;;9.98;87.02;99896.00;4991493;28;20483;-86
2023/04/16 01:35:40;;;;;;;27.00;9.75;;;;;;;10.02;86.81;99906.34;5003428;28;20279;-85
2023/04/16 01:38:07;;;;;;;26.15;10.48;;;;;;;9.98;86.58;99896.00;4992199;28;20104;-86
2023/04/16 01:40:35;;;;;;;24.90;9.38;;;;;;;10.02;86.75;99904.50;5006144;28;20057;-86
2023/04/16 01:43:02;;;;;;;23.83;8.80;;;;;;;9.99;87.40;99902.97;4997167;28;20077;-86
2023/04/16 01:45:30;;;;;;;22.83;8.63;;;;;;;9.96;86.81;99905.88;5001185;28;20050;-86
2023/04/16 01:47:57;;;;;;;25.30;8.10;;;;;;;10.00;86.96;99906.47;5014514;28;20042;-86
2023/04/16 01:50:24;;;;;;;22.50;8.63;;;;;;;9.98;87.08;99896.00;4978564;28;20074;-85
2023/04/16 01:52:51;;;;;;;22.05;7.90;;;;;;;9.98;87.93;99900.47;4977759;28;20044;-85
2023/04/16 01:55:18;;;;;;;20.63;8.20;;;;;;;9.98;87.48;99901.28;5003539;28;20049;-85
2023/04/16 01:57:44;;;;;;;25.13;8.70;;;;;;;9.99;87.77;99902.97;5008835;28;20080;-85
2023/04/16 02:00:13;;;;;;;23.10;7.82;;;;;;;9.98;86.82;99906.59;4983237;28;20124;-85
2023/04/16 02:02:45;;;;;;;17.80;7.65;;;;;;;10.01;86.19;99908.16;5012040;28;20456;-86
2023/04/16 02:05:19;;;;;;;24.00;8.80;;;;;;;9.95;86.08;99898.91;5012968;28;20491;-85
2023/04/16 02:07:45;;;;;;;25.17;8.23;;;;;;;10.03;85.78;99900.06;4985192;28;20491;-85
2023/04/16 02:10:12;;;;;;;20.40;8.93;;;;;;;9.98;86.59;99911.06;4998767;28;20141;-85
2023/04/16 02:12:39;;;;;;;21.58;9.18;;;;;;;9.98;86.25;99906.59;4996337;28;20049;-85
2023/04/16 02:15:06;;;;;;;25.02;9.18;;;;;;;9.84;86.40;99903.44;4985275;28;20053;-85
2023/04/16 02:17:34;;;;;;;26.10;9.70;;;;;;;9.87;86.52;99909.34;4984018;28;20462;-86
2023/04/16 02:20:09;;;;;;;28.23;9.50;;;;;;;9.89;86.35;99912.66;4999274;28;20384;-86
2023/04/16 02:22:56;;;;;;;23.60;10.00;;;;;;;9.90;86.53;99911.72;5012218;28;20128;-85
2023/04/16 02:25:23;;;;;;;29.17;10.27;;;;;;;9.89;86.58;99912.66;4989302;28;20407;-86
2023/04/16 02:27:54;;;;;;;31.63;12.00;;;;;;;9.77;86.43;99916.38;4974398;28;20104;-85
2023/04/16 02:30:39;;;;;;;29.75;10.90;;;;;;;9.84;86.14;99912.22;4997000;28;20132;-85
2023/04/16 02:33:08;;;;;;;31.65;11.13;;;;;;;9.88;86.81;99913.66;4985744;28;20053;-85
2023/04/16 02:35:37;;;;;;;31.95;11.35;;;;;;;9.93;86.58;99918.56;5001650;28;20082;-86
2023/04/16 02:38:05;;;;;;;31.58;11.65;;;;;;;9.87;86.65;99917.28;4980228;28;20507;-86
2023/04/16 02:40:34;;;;;;;33.78;12.05;;;;;;;9.92;86.46;99912.44;4982718;28;20065;-85
2023/04/16 02:43:01;;;;;;;35.40;12.45;;;;;;;9.88;87.01;99915.47;5011392;28;20045;-86
2023/04/16 02:45:27;;;;;;;35.20;13.45;;;;;;;9.91;86.34;99926.66;4997807;28;20124;-86
2023/04/16 02:47:54;;;;;;;31.38;12.07;;;;;;;9.91;86.77;99925.81;4991930;28;20582;-85
2023/04/16 02:50:21;;;;;;;33.25;12.43;;;;;;;9.90;86.82;99924.16;4978019;28;20132;-85
2023/04/16 02:52:48;;;;;;;32.53;12.60;;;;;;;9.92;87.21;99917.75;5014778;28;20049;-86
2023/04/16 02:55:15;;;;;;;37.20;11.77;;;;;;;9.91;87.24;99920.50;4992530;28;20107;-85
2023/04/16 02:57:41;;;;;;;35.28;13.45;;;;;;;9.91;87.69;99929.31;5001302;28;20061;-86
2023/04/16 03:00:09;;;;;;;36.65;13.60;;;;;;;9.91;86.87;99931.97;5002334;28;20041;-85
2023/04/16 03:02:36;;;;;;;37.55;13.43;;;;;;;9.87;87.39;99935.00;5012255;28;20629;-85
2023/04/16 03:05:03;;;;;;;33.75;13.35;;;;;;;9.92;87.12;99938.09;4979015;28;20061;-85
2023/04/16 03:07:30;;;;;;;44.30;15.05;;;;;;;9.88;87.67;99932.22;4985157;28;20045;-85
2023/04/16 03:09:56;;;;;;;43.20;14.88;;;;;;;9.81;87.64;99936.34;5015236;28;20046;-85
2023/04/16 03:12:23;;;;;;;43.72;14.23;;;;;;;9.82;87.72;99940.72;5007308;28;20049;-85
2023/04/16 03:14:51;;;;;;;39.63;15.38;;;;;;;9.82;87.59;99938.06;5009132;28;20779;-85
2023/04/16 03:17:18;;;;;;;38.95;15.32;;;;;;;9.80;87.58;99942.63;5011976;28;20131;-86
2023/04/16 03:19:45;;;;;;;42.78;15.70;;;;;;;9.78;87.50;99941.91;4978663;28;20347;-85
2023/04/16 03:22:11;;;;;;;47.75;17.38;;;;;;;9.75;87.84;99928.91;4987434;28;20123;-87
2023/04/16 03:24:38;;;;;;;43.17;17.13;;;;;;;9.67;88.83;99952.59;4995480;28;20047;-85
2023/04/16 03:27:06;;;;;;;44.00;15.93;;;;;;;9.76;87.55;99942.03;4979680;28;20049;-85
2023/04/16 03:29:36;;;;;;;40.38;14.95;;;;;;;9.72;88.59;99948.59;4979387;28;20096;-85
2023/04/16 03:32:04;;;;;;;45.00;16.15;;;;;;;9.81;88.34;99956.72;5002218;28;20045;-86
2023/04/16 03:34:31;;;;;;;55.45;17.83;;;;;;;9.71;87.64;99954.84;4993188;28;20406;-85
2023/04/16 03:36:59;;;;;;;48.97;17.20;;;;;;;9.72;88.03;99950.41;4996020;28;20049;-85
2023/04/16 03:39:26;;;;;;;46.70;17.15;;;;;;;9.72;88.86;99945.94;5006868;28;20552;-86
2023/04/16 03:41:53;;;;;;;53.35;16.55;;;;;;;9.73;88.51;99950.25;5000084;28;20050;-85
2023/04/16 03:44:20;;;;;;;47.75;17.10;;;;;;;9.68;88.41;99952.44;5022116;28;20049;-86
2023/04/16 03:46:47;;;;;;;51.75;18.25;;;;;;;9.76;88.21;99957.94;4983799;28;20583;-86
2023/04/16 03:49:14;;;;;;;45.85;15.75;;;;;;;9.67;88.73;99956.06;4993482;28;20716;-85
2023/04/16 03:51:41;;;;;;;48.22;17.73;;;;;;;9.68;88.46;99959.56;4997742;28;20050;-85
2023/04/16 03:54:08;;;;;;;44.60;17.27;;;;;;;9.69;88.25;99959.44;4997845;28;20050;-86
2023/04/16 03:56:36;;;;;;;44.35;16.45;;;;;;;9.74;87.93;99951.97;4998918;28;20052;-86
2023/04/16 03:59:03;;;;;;;46.78;17.77;;;;;;;9.71;88.39;99960.13;5014693;28;20045;-86
2023/04/16 04:01:29;;;;;;;45.45;17.23;;;;;;;9.70;88.05;99958.47;4985804;28;20053;-86
2023/04/16 04:03:56;;;;;;;47.13;16.77;;;;;;;9.71;nan;99965.44;4982975;28;20050;-86
2023/04/16 04:06:23;;;;;;;49.17;17.15;;;;;;;9.73;88.07;99954.72;4998661;28;20049;-86
2023/04/16 04:08:50;;;;;;;48.10;17.42;;;;;;;9.76;88.21;99960.59;4987451;28;20037;-86
2023/04/16 04:11:17;;;;;;;50.05;16.08;;;;;;;9.75;88.43;99964.22;4994540;28;20725;-85
2023/04/16 04:13:44;;;;;;;45.15;15.43;;;;;;;9.80;88.11;99968.31;5009134;28;20049;-85
2023/04/16 04:16:12;;;;;;;40.22;16.40;;;;;;;9.81;88.28;99970.00;4994800;28;20401;-86
2023/04/16 04:18:38;;;;;;;41.08;15.40;;;;;;;9.82;88.42;99969.00;4981346;28;20049;-86
2023/04/16 04:21:06;;;;;;;42.85;15.38;;;;;;;9.82;88.25;99977.84;4999063;28;20410;-86
2023/04/16 04:23:34;;;;;;;40.15;15.48;;;;;;;9.73;88.30;99976.78;5009438;28;20070;-86
2023/04/16 04:26:02;;;;;;;43.22;16.38;;;;;;;9.68;88.63;99984.25;5001666;28;20049;-85
2023/04/16 04:28:32;;;;;;;51.72;16.73;;;;;;;9.80;88.04;99976.28;5000260;28;20292;-85
2023/04/16 04:30:59;;;;;;;39.90;16.90;;;;;;;9.73;88.63;99984.72;4979980;28;20149;-85
2023/04/16 04:33:27;;;;;;;40.55;16.42;;;;;;;9.73;87.94;99987.38;4995401;28;20057;-86
2023/04/16 04:35:54;;;;;;;39.47;17.00;;;;;;;9.75;88.29;99984.59;5026485;28;20120;-85
2023/04/16 04:38:24;;;;;;;50.33;17.45;;;;;;;9.69;88.10;99988.63;4981395;28;20133;-86
2023/04/16 04:40:51;;;;;;;48.00;16.55;;;;;;;9.64;88.07;99996.09;4984668;28;20041;-85
2023/04/16 04:43:19;;;;;;;36.92;15.98;;;;;;;9.70;87.75;99984.97;5003513;28;20045;-85
2023/04/16 04:45:47;;;;;;;45.08;16.42;;;;;;;9.70;87.92;99995.59;4968117;28;20418;-85
2023/04/16 04:48:15;;;;;;;46.03;16.45;;;;;;;9.62;87.55;100003.34;4965363;28;20046;-85
2023/04/16 04:50:43;;;;;;;40.67;15.65;;;;;;;9.61;87.71;99998.16;4961616;28;20582;-85
2023/04/16 04:53:10;;;;;;;41.10;14.98;;;;;;;9.75;87.55;100006.66;5007280;28;20056;-85
2023/04/16 04:55:38;;;;;;;42.22;16.23;;;;;;;9.71;87.61;100001.72;5008678;28;20465;-86
2023/04/16 04:58:05;;;;;;;42.67;15.45;;;;;;;9.78;87.43;99995.78;4997888;28;20545;-85
2023/04/16 05:00:35;;;;;;;41.25;15.63;;;;;;;9.83;87.13;99994.59;4980969;28;20059;-85
2023/04/16 05:03:09;;;;;;;43.45;15.80;;;;;;;9.83;87.35;100007.84;5006904;28;20049;-85
2023/04/16 05:05:36;;;;;;;38.45;15.90;;;;;;;9.87;87.16;100012.78;5000482;28;20041;-86
2023/04/16 05:08:03;;;;;;;36.55;14.45;;;;;;;9.85;86.71;100013.88;5006032;28;20133;-86
2023/04/16 05:10:30;;;;;;;44.10;15.35;;;;;;;9.90;87.21;100014.34;5009907;28;20085;-85
2023/04/16 05:12:57;;;;;;;36.88;14.88;;;;;;;9.93;87.51;100016.72;4999890;28;20410;-85
2023/04/16 05:15:23;;;;;;;36.67;14.30;;;;;;;9.92;87.33;100015.88;4982542;28;20673;-86
2023/04/16 05:17:50;;;;;;;38.03;16.00;;;;;;;9.95;87.49;100020.09;4996360;28;20050;-86
2023/04/16 05:20:17;;;;;;;40.67;16.40;;;;;;;9.94;87.81;100018.41;5008434;28;20063;-86
2023/04/16 05:22:44;;;;;;;37.28;15.85;;;;;;;9.92;86.34;100020.31;5006168;28;20049;-85
2023/04/16 05:25:10;;;;;;;31.50;14.55;;;;;;;9.97;85.84;100029.59;5015336;28;20049;-86
2023/04/16 05:27:37;;;;;;;30.65;13.38;;;;;;;9.99;85.84;100030.31;5001225;28;20048;-86
2023/04/16 05:30:05;;;;;;;35.42;14.23;;;;;;;9.99;86.06;100029.47;5011931;28;20121;-85
2023/04/16 05:32:31;;;;;;;34.75;13.38;;;;;;;9.98;85.90;100033.94;5002286;28;20044;-86
2023/04/16 05:34:58;;;;;;;31.67;13.13;;;;;;;10.02;85.21;100038.97;5012612;28;20045;-85
2023/04/16 05:37:25;;;;;;;37.15;14.55;;;;;;;9.97;85.45;100044.66;5014435;28;20057;-86
2023/04/16 05:39:52;;;;;;;32.22;13.10;;;;;;;10.02;85.55;100047.78;4994142;28;20037;-86
2023/04/16 05:42:18;;;;;;;30.67;13.73;;;;;;;10.02;85.63;100033.69;5008601;28;20053;-85
2023/04/16 05:44:45;;;;;;;32.35;14.02;;;;;;;10.05;85.46;100033.41;5007201;28;20053;-85
2023/04/16 05:47:12;;;;;;;34.30;13.73;;;;;;;10.02;85.20;100042.47;5016443;28;20101;-85
2023/04/16 05:49:39;;;;;;;32.85;13.63;;;;;;;9.91;85.08;100050.50;4982818;28;20073;-86
2023/04/16 05:52:06;;;;;;;29.17;12.68;;;;;;;9.94;84.47;100047.56;4997292;28;20076;-86
2023/04/16 05:54:33;;;;;;;29.83;11.80;;;;;;;10.02;84.55;100046.94;4996077;28;20052;-86
2023/04/16 05:57:00;;;;;;;27.83;12.32;;;;;;;10.04;84.94;100056.47;5017316;28;20061;-85
2023/04/16 05:59:28;;;;;;;28.50;14.15;;;;;;;10.04;85.34;100058.28;5000024;28;20046;-86
2023/04/16 06:01:54;;;;;;;27.42;13.02;;;;;;;10.07;84.49;100071.28;4999962;28;20053;-86
2023/04/16 06:04:21;;;;;;;29.77;12.77;;;;;;;10.06;83.64;100069.59;4993206;28;20045;-86
2023/04/16 06:06:49;;;;;;;32.90;13.45;;;;;;;10.08;83.81;100067.69;5004930;28;20565;-86
2023/04/16 06:09:16;;;;;;;29.35;13.02;;;;;;;10.05;84.62;100067.91;4980738;28;20506;-86
2023/04/16 06:11:43;;;;;;;29.98;12.75;;;;;;;10.07;84.66;100074.78;5010519;28;20057;-86
2023/04/16 06:14:10;;;;;;;27.92;12.48;;;;;;;9.97;83.81;100061.44;4996100;28;20056;-86
2023/04/16 06:16:37;;;;;;;30.60;13.52;;;;;;;10.02;84.01;100068.16;5007330;28;20050;-86
2023/04/16 06:19:04;;;;;;;32.92;12.57;;;;;;;10.05;83.86;100068.78;5010312;28;20475;-86
2023/04/16 06:21:31;;;;;;;30.02;12.10;;;;;;;10.03;84.47;100070.69;5012888;28;20049;-86
2023/04/16 06:23:58;;;;;;;29.70;11.80;;;;;;;10.07;84.47;100074.78;5009734;28;20045;-85
2023/04/16 06:26:25;;;;;;;26.20;12.18;;;;;;;10.07;84.38;100071.28;5012340;28;20047;-87
2023/04/16 06:28:52;;;;;;;28.58;12.18;;;;;;;10.05;84.27;100075.88;4970276;28;20049;-86
2023/04/16 06:31:19;;;;;;;26.65;11.55;;;;;;;10.06;84.53;100073.09;5005397;28;20210;-86
2023/04/16 06:33:46;;;;;;;30.52;11.73;;;;;;;10.07;84.30;100071.28;4999602;28;20057;-86
2023/04/16 06:36:13;;;;;;;28.83;11.40;;;;;;;10.07;84.03;100088.03;4999621;28;20518;-86
2023/04/16 06:38:39;;;;;;;24.77;10.95;;;;;;;10.13;83.42;100084.91;4996652;28;20564;-85
2023/04/16 06:41:06;;;;;;;27.42;12.60;;;;;;;10.11;85.14;100078.03;5008471;28;20046;-87
2023/04/16 06:43:33;;;;;;;27.05;12.10;;;;;;;10.12;85.60;100088.50;5012814;28;20037;-86
2023/04/16 06:45:59;;;;;;;23.63;11.40;;;;;;;10.11;86.26;100084.19;5012895;28;20046;-85
2023/04/16 06:48:26;;;;;;;21.92;10.48;;;;;;;10.10;86.39;100095.78;5016558;28;20537;-86
2023/04/16 06:50:54;;;;;;;29.20;11.48;;;;;;;10.06;84.46;100082.88;5000038;28;20048;-85
2023/04/16 06:53:22;;;;;;;27.13;11.00;;;;;;;10.04;84.32;100083.00;5012765;28;20046;-85
2023/04/16 06:55:49;;;;;;;22.90;10.45;;;;;;;10.09;84.33;100082.63;4997199;28;20486;-87
2023/04/16 06:58:15;;;;;;;26.50;10.98;;;;;;;10.13;84.42;100090.19;4998464;28;20045;-86
2023/04/16 07:00:42;;;;;;;25.27;10.68;;;;;;;10.12;83.63;100090.31;5012088;28;20221;-86
2023/04/16 07:03:09;;;;;;;22.75;10.43;;;;;;;10.15;83.59;100093.56;4995162;28;20042;-86
2023/04/16 07:05:36;;;;;;;20.92;9.68;;;;;;;10.15;83.51;100090.06;4980081;28;20073;-87
2023/04/16 07:08:03;;;;;;;23.65;10.80;;;;;;;10.20;84.19;100099.34;5005936;28;20070;-86
2023/04/16 07:10:30;;;;;;;21.75;10.27;;;;;;;10.18;83.80;100093.31;5010197;28;20891;-86
2023/04/16 07:13:00;;;;;;;21.15;9.75;;;;;;;10.15;82.80;100096.22;5001744;28;20462;-86
2023/04/16 07:15:27;;;;;;;26.70;12.23;;;;;;;10.11;83.35;100100.09;4964721;28;20052;-85
2023/04/16 07:17:54;;;;;;;20.50;9.80;;;;;;;10.17;83.72;100099.56;5008129;28;20057;-86
2023/04/16 07:20:21;;;;;;;26.08;11.40;;;;;;;10.13;83.16;100103.47;5000308;28;20076;-85
2023/04/16 07:22:48;;;;;;;23.85;10.82;;;;;;;10.15;83.49;100103.31;5015010;28;20056;-86
2023/04/16 07:25:14;;;;;;;27.40;11.40;;;;;;;10.06;83.13;100104.09;5010272;28;20093;-85
2023/04/16 07:27:41;;;;;;;27.27;10.85;;;;;;;10.02;83.77;100114.09;4987138;28;20471;-85
2023/04/16 07:30:08;;;;;;;26.33;11.52;;;;;;;10.02;84.21;100115.91;5012515;28;20068;-86
2023/04/16 07:32:35;;;;;;;28.98;11.75;;;;;;;10.07;84.15;100111.06;4988418;28;20355;-86
2023/04/16 07:35:02;;;;;;;26.33;11.10;;;;;;;10.06;84.66;100118.19;5010997;28;20477;-86
2023/04/16 07:37:29;;;;;;;26.95;11.43;;;;;;;9.94;85.04;100117.38;5001715;28;20061;-86
2023/04/16 07:39:56;;;;;;;25.33;11.30;;;;;;;9.99;85.19;100124.97;4994617;28;20546;-86
2023/04/16 07:42:23;;;;;;;27.20;11.68;;;;;;;9.94;85.91;100133.28;5007225;28;20046;-86
2023/04/16 07:44:50;;;;;;;29.50;11.80;;;;;;;9.92;85.89;100122.00;5012851;28;20135;-86
2023/04/16 07:47:16;;;;;;;30.75;11.50;;;;;;;9.97;86.08;100129.56;5009554;28;20068;-85
2023/04/16 07:49:43;;;;;;;27.35;12.52;;;;;;;10.03;85.60;100130.88;5005047;28;20522;-86
2023/04/16 07:52:10;;;;;;;22.90;10.32;;;;;;;10.05;85.84;100123.63;5011874;28;20104;-85
2023/04/16 07:54:36;;;;;;;28.95;12.25;;;;;;;10.08;85.94;100128.69;4983664;28;20049;-86
2023/04/16 07:57:03;;;;;;;25.25;11.60;;;;;;;10.10;85.27;100124.09;5007261;28;20531;-86
2023/04/16 07:59:30;;;;;;;28.17;11.35;;;;;;;10.11;85.39;100125.78;5021322;28;20048;-86
2023/04/16 08:01:56;;;;;;;29.13;11.82;;;;;;;10.09;85.44;100133.03;4995931;28;20399;-86
2023/04/16 08:04:23;;;;;;;26.88;11.70;;;;;;;10.11;85.67;100136.41;4993715;28;20468;-86
2023/04/16 08:06:52;;;;;;;28.33;11.65;;;;;;;10.07;85.97;100134.97;5011080;28;20119;-86
2023/04/16 08:09:20;;;;;;;24.60;11.27;;;;;;;10.00;85.56;100137.28;4993869;28;20049;-86
2023/04/16 08:11:48;;;;;;;27.15;11.68;;;;;;;10.03;85.41;100138.84;4999411;28;20053;-86
2023/04/16 08:14:16;;;;;;;29.23;11.65;;;;;;;10.05;85.03;100144.84;4986541;28;20426;-86
2023/04/16 08:16:43;;;;;;;29.27;11.63;;;;;;;10.06;85.28;100149.19;5005199;28;20233;-86
2023/04/16 08:19:09;;;;;;;24.73;10.95;;;;;;;10.06;85.60;100144.72;5009277;28;20107;-87
2023/04/16 08:21:37;;;;;;;29.23;11.88;;;;;;;10.06;85.64;100147.38;5014596;28;20083;-85
2023/04/16 08:24:03;;;;;;;29.50;12.70;;;;;;;10.04;86.21;100159.94;5000181;28;20033;-86
2023/04/16 08:26:30;;;;;;;26.67;11.40;;;;;;;10.06;85.70;100155.34;5017499;28;20122;-86
2023/04/16 08:28:57;;;;;;;26.08;11.35;;;;;;;10.05;86.24;100161.63;4967985;28;20139;-86
2023/04/16 08:31:24;;;;;;;22.90;11.10;;;;;;;10.06;85.89;100158.00;5008422;28;20056;-85
2023/04/16 08:33:51;;;;;;;32.47;12.45;;;;;;;10.05;86.04;100160.75;5011234;28;20117;-86
2023/04/16 08:36:18;;;;;;;29.20;11.38;;;;;;;10.06;85.86;100165.97;4997543;28;20419;-86
2023/04/16 08:38:45;;;;;;;26.88;11.60;;;;;;;10.04;86.33;100162.59;5009228;28;20041;-86
2023/04/16 08:41:12;;;;;;;26.95;10.65;;;;;;;10.06;86.11;100162.47;5005903;28;20056;-86
2023/04/16 08:43:43;;;;;;;25.38;11.80;;;;;;;9.98;86.79;100171.06;4998977;28;20049;-86
2023/04/16 08:46:11;;;;;;;29.05;12.52;;;;;;;10.05;86.13;100164.28;5004553;28;20050;-85
2023/04/16 08:48:37;;;;;;;25.50;10.57;;;;;;;10.10;86.29;100175.38;4991094;28;20129;-86
2023/04/16 08:51:08;;;;;;;25.25;10.45;;;;;;;10.06;86.15;100167.78;4999637;28;20053;-86
2023/04/16 08:53:48;;;;;;;25.45;11.77;;;;;;;10.10;85.70;100170.06;5005372;28;20130;-86
2023/04/16 08:56:16;;;;;;;26.25;11.48;;;;;;;10.13;86.04;100171.63;4994725;28;20394;-85
2023/04/16 08:58:45;;;;;;;26.88;11.40;;;;;;;10.13;86.14;100174.28;5010643;28;20136;-86
2023/04/16 09:01:11;;;;;;;24.23;10.50;;;;;;;10.11;86.09;100178.84;5003506;28;20050;-86
2023/04/16 09:03:38;;;;;;;25.48;12.05;;;;;;;10.15;86.20;100177.63;4996661;28;21777;-86
2023/04/16 09:06:06;;;;;;;22.90;10.70;;;;;;;10.10;85.54;100178.03;4992636;28;20574;-86
2023/04/16 09:08:34;;;;;;;23.77;9.93;;;;;;;10.08;85.96;100187.91;5001419;28;20046;-86
2023/04/16 09:11:01;;;;;;;21.75;10.38;;;;;;;10.07;86.19;100188.84;5006468;28;20125;-86
2023/04/16 09:13:32;;;;;;;22.92;10.63;;;;;;;10.11;86.27;100189.47;5007627;28;20360;-86
2023/04/16 09:15:59;;;;;;;26.98;10.32;;;;;;;10.10;86.05;100185.13;5005795;28;20050;-86
2023/04/16 09:18:27;;;;;;;23.40;10.70;;;;;;;10.14;86.13;100189.22;5008670;28;20045;-86
2023/04/16 09:20:55;;;;;;;22.92;9.55;;;;;;;10.14;86.11;100181.25;4999606;28;20057;-85
2023/04/16 09:23:22;;;;;;;21.08;10.35;;;;;;;10.16;86.25;100193.44;4994662;28;20053;-86
2023/04/16 09:25:48;;;;;;;21.55;9.77;;;;;;;10.17;85.89;100195.09;5010033;28;20061;-86
2023/04/16 09:28:37;;;;;;;20.10;8.30;;;;;;;10.10;86.45;100201.91;4999204;28;20131;-86
2023/04/16 09:31:08;;;;;;;14.77;7.43;;;;;;;10.10;86.64;100196.59;4992784;28;20045;-86
2023/04/16 09:33:35;;;;;;;18.02;9.05;;;;;;;10.15;86.51;100202.38;5010860;28;20148;-87
2023/04/16 09:36:04;;;;;;;19.02;8.32;;;;;;;10.12;86.17;100199.94;4980278;28;20077;-85
2023/04/16 09:38:51;;;;;;;16.42;7.75;;;;;;;9.99;87.54;100205.41;5006264;28;20073;-87
2023/04/16 09:41:28;;;;;;;19.77;7.63;;;;;;;10.05;86.67;100208.53;5016129;28;20060;-86
2023/04/16 09:43:56;;;;;;;15.15;7.45;;;;;;;10.08;86.94;100203.84;5003337;28;20034;-86
2023/04/16 09:46:28;;;;;;;17.35;6.88;;;;;;;10.13;86.76;100200.81;5004517;28;20064;-86
2023/04/16 09:48:55;;;;;;;16.33;7.28;;;;;;;10.13;86.55;100209.63;5002721;28;20065;-87
2023/04/16 09:51:21;;;;;;;18.42;7.30;;;;;;;10.15;86.86;100202.38;4995359;28;20045;-86
2023/04/16 09:53:51;;;;;;;14.18;7.63;;;;;;;10.15;86.72;100207.69;5004767;28;20133;-85
2023/04/16 09:56:22;;;;;;;13.05;6.68;;;;;;;10.20;86.23;100204.63;4974834;28;21340;-86
2023/04/16 09:58:49;;;;;;;13.43;6.43;;;;;;;10.17;86.50;100216.34;4994765;28;20046;-85
2023/04/16 10:01:16;;;;;;;11.55;5.55;;;;;;;10.20;86.11;100215.25;4997904;28;20069;-85
2023/04/16 10:03:48;;;;;;;11.63;6.05;;;;;;;10.19;86.46;100214.41;5004403;28;20045;-86
2023/04/16 10:06:20;;;;;;;12.38;5.88;;;;;;;10.25;86.57;100213.06;4997045;28;20691;-86
2023/04/16 10:08:51;;;;;;;9.80;5.25;;;;;;;10.26;86.85;100219.25;5014005;28;20046;-86
2023/04/16 10:11:19;;;;;;;17.23;6.60;;;;;;;10.27;86.27;100221.75;5008155;28;20582;-86
2023/04/16 10:13:46;;;;;;;10.57;5.47;;;;;;;10.29;86.42;100214.53;4997652;28;20076;-86
2023/04/16 10:16:13;;;;;;;13.25;5.55;;;;;;;10.29;86.72;100224.31;5011175;28;20731;-85
2023/04/16 10:18:41;;;;;;;10.25;5.43;;;;;;;10.27;86.81;100229.72;4997625;28;20525;-86
2023/04/16 10:21:10;;;;;;;12.05;5.15;;;;;;;10.24;86.71;100226.47;4991783;28;20050;-86
2023/04/16 10:23:42;;;;;;;10.60;5.07;;;;;;;10.28;86.73;100230.59;4991243;28;20053;-87
2023/04/16 10:26:09;;;;;;;8.68;4.45;;;;;;;10.23;86.50;100230.94;4994852;28;20045;-87
2023/04/16 10:28:36;;;;;;;8.10;3.88;;;;;;;10.27;86.63;100232.38;4981444;28;20153;-86
2023/04/16 10:31:06;;;;;;;8.70;4.18;;;;;;;10.30;86.65;100232.16;4995862;28;20434;-85
2023/04/16 10:33:39;;;;;;;10.88;4.53;;;;;;;10.33;86.14;100233.72;5007526;28;20048;-86
2023/04/16 10:36:25;;;;;;;7.85;3.78;;;;;;;10.30;86.62;100241.94;5004005;28;20055;-86
2023/04/16 10:38:57;;;;;;;6.70;3.58;;;;;;;10.36;86.72;100238.78;5008208;28;20060;-86
2023/04/16 10:41:25;;;;;;;6.38;3.92;;;;;;;10.41;86.60;100240.09;4993514;28;20120;-86
2023/04/16 10:43:52;;;;;;;7.88;3.72;;;;;;;10.41;86.81;100239.25;4988617;28;20478;-86
2023/04/16 10:46:21;;;;;;;9.00;3.35;;;;;;;10.34;86.33;100235.41;5000457;28;20079;-86
2023/04/16 10:48:53;;;;;;;6.82;3.65;;;;;;;10.29;86.26;100245.56;4998913;28;20056;-86
2023/04/16 10:51:31;;;;;;;6.38;3.38;;;;;;;10.28;86.29;100241.19;5010527;28;20115;-86
2023/04/16 10:54:02;;;;;;;9.38;4.28;;;;;;;10.30;87.02;100233.97;4996789;28;20052;-86
2023/04/16 10:56:31;;;;;;;6.75;3.88;;;;;;;10.27;86.84;100237.69;5008618;28;20566;-86
2023/04/16 10:58:58;;;;;;;6.70;3.17;;;;;;;10.35;86.58;100239.75;4998178;28;20418;-86
2023/04/16 11:01:33;;;;;;;7.90;3.78;;;;;;;10.28;86.57;100228.78;5013208;28;20134;-86
2023/04/16 11:04:21;;;;;;;7.65;3.80;;;;;;;10.34;86.64;100235.41;5004724;28;20037;-86
2023/04/16 11:07:10;;;;;;;9.20;4.05;;;;;;;10.26;86.91;100238.66;5014876;28;20042;-85
2023/04/16 11:09:44;;;;;;;8.93;4.07;;;;;;;10.22;86.84;100246.00;5010846;28;20498;-86
2023/04/16 11:12:13;;;;;;;7.60;4.25;;;;;;;10.29;86.58;100245.56;4987607;28;20050;-86
2023/04/16 11:14:41;;;;;;;8.35;4.53;;;;;;;10.27;86.67;100240.34;4976217;28;20057;-86
2023/04/16 11:17:08;;;;;;;8.32;3.83;;;;;;;10.34;86.88;100238.06;4996752;28;20048;-87
2023/04/16 11:19:35;;;;;;;8.32;3.67;;;;;;;10.36;87.13;100242.28;5015044;28;20042;-85
2023/04/16 11:22:02;;;;;;;8.98;4.45;;;;;;;10.35;87.25;100243.22;4997917;28;20506;-85
2023/04/16 11:24:30;;;;;;;8.23;4.25;;;;;;;10.34;87.33;100238.06;5009964;28;20064;-86